Time;durP1;ratioP1;P1;durP2;ratioP2;P2;SDS_P1;SDS_P2;PMS_P1;PMS_P2;Temp;Humidity;BMP_temperature;BMP_pressure;BME280_temperature;BME280_humidity;BME280_pressure;Samples;Min_cycle;Max_cycle;Signal;HPM_P1;HPM_P2
2023/04/27 00:01:31;;;;;;;5.25;2.70;;;;;;;;;;5055705;28;20061;-70
2023/04/27 00:04:17;;;;;;;5.50;3.03;;;;;;;;;;5050381;28;20517;-71
2023/04/27 00:07:03;;;;;;;8.27;3.10;;;;;;;;;;5046864;28;20049;-70
2023/04/27 00:09:53;;;;;;;9.38;3.90;;;;;;;;;;5046373;28;20360;-71
2023/04/27 00:12:41;;;;;;;5.85;3.20;;;;;;;;;;5039758;28;20052;-71
2023/04/27 00:15:26;;;;;;;7.75;3.45;;;;;;;;;;5044589;28;20194;-74
2023/04/27 00:18:12;;;;;;;4.18;2.75;;;;;;;;;;5047203;28;20489;-73
2023/04/27 00:20:57;;;;;;;6.45;3.25;;;;;;;;;;5048408;28;20100;-73
2023/04/27 00:23:43;;;;;;;4.15;2.72;;;;;;;;;;5042204;28;20120;-73
2023/04/27 00:26:28;;;;;;;4.93;2.72;;;;;;;;;;5048160;28;20419;-71
2023/04/27 00:29:13;;;;;;;7.60;3.92;;;;;;;;;;5031235;28;20048;-70
2023/04/27 00:31:58;;;;;;;7.78;2.97;;;;;;;;;;5047051;28;20328;-71
2023/04/27 00:34:44;;;;;;;8.02;3.40;;;;;;;;;;5036430;28;20499;-75
2023/04/27 00:37:29;;;;;;;6.65;3.03;;;;;;;;;;5044389;28;20041;-77
2023/04/27 00:40:14;;;;;;;8.35;3.63;;;;;;;;;;5047445;28;20052;-77
2023/04/27 00:42:59;;;;;;;6.55;3.10;;;;;;;;;;5042372;28;20474;-77
2023/04/27 00:45:45;;;;;;;7.25;3.17;;;;;;;;;;5031650;28;20381;-80
2023/04/27 00:48:30;;;;;;;8.13;2.42;;;;;;;;;;5033201;28;20078;-77
2023/04/27 00:51:15;;;;;;;6.85;2.75;;;;;;;;;;5046458;28;20028;-72
2023/04/27 00:54:01;;;;;;;5.97;2.30;;;;;;;;;;5030600;28;20092;-77
2023/04/27 00:56:50;;;;;;;5.50;2.58;;;;;;;;;;5043188;28;20415;-77
2023/04/27 00:59:35;;;;;;;5.47;2.35;;;;;;;;;;5032240;28;20036;-76
2023/04/27 01:02:21;;;;;;;5.47;2.38;;;;;;;;;;5030976;28;20202;-76
2023/04/27 01:05:07;;;;;;;5.38;2.55;;;;;;;;;;5051615;28;20063;-75
2023/04/27 01:07:52;;;;;;;4.30;2.30;;;;;;;;;;5026741;28;20385;-76
2023/04/27 01:10:38;;;;;;;7.82;3.13;;;;;;;;;;5032073;28;20039;-78
2023/04/27 01:13:23;;;;;;;6.25;2.90;;;;;;;;;;5046683;28;20357;-75
2023/04/27 01:16:08;;;;;;;4.43;2.92;;;;;;;;;;5046382;28;20029;-76
2023/04/27 01:18:54;;;;;;;6.60;2.88;;;;;;;;;;5045798;28;20033;-75
2023/04/27 01:21:39;;;;;;;8.07;3.08;;;;;;;;;;5044713;28;20025;-77
2023/04/27 01:24:24;;;;;;;9.18;3.47;;;;;;;;;;5044269;28;20028;-80
2023/04/27 01:27:10;;;;;;;5.47;3.17;;;;;;;;;;5045432;28;20032;-77
2023/04/27 01:29:55;;;;;;;7.85;3.50;;;;;;;;;;5040353;28;20294;-71
2023/04/27 01:32:40;;;;;;;5.75;2.92;;;;;;;;;;5044710;28;20548;-70
2023/04/27 01:35:25;;;;;;;11.50;2.78;;;;;;;;;;5046529;28;20027;-72
2023/04/27 01:38:11;;;;;;;4.65;2.38;;;;;;;;;;5047024;28;20499;-71
2023/04/27 01:41:00;;;;;;;6.82;3.20;;;;;;;;;;5042031;28;20037;-70
2023/04/27 01:43:46;;;;;;;4.72;2.63;;;;;;;;;;5043016;28;20024;-71
2023/04/27 01:46:31;;;;;;;9.07;4.50;;;;;;;;;;5041604;28;20024;-72
2023/04/27 01:49:16;;;;;;;8.57;3.15;;;;;;;;;;5042981;28;20087;-74
2023/04/27 01:52:01;;;;;;;7.03;2.50;;;;;;;;;;5040295;28;20036;-73
2023/04/27 01:54:47;;;;;;;7.65;3.55;;;;;;;;;;5046724;28;20056;-75
2023/04/27 01:57:32;;;;;;;6.68;2.72;;;;;;;;;;5049144;28;20036;-76
2023/04/27 02:00:17;;;;;;;16.70;3.80;;;;;;;;;;5045362;28;20017;-76
2023/04/27 02:03:03;;;;;;;7.57;2.67;;;;;;;;;;5041358;28;20025;-74
2023/04/27 02:05:48;;;;;;;12.40;3.38;;;;;;;;;;5043285;28;20025;-77
2023/04/27 02:08:33;;;;;;;8.20;3.10;;;;;;;;;;5048023;28;20023;-77
2023/04/27 02:11:18;;;;;;;6.30;2.83;;;;;;;;;;5039672;28;20024;-78
2023/04/27 02:14:04;;;;;;;8.52;2.92;;;;;;;;;;5047670;28;20037;-75
2023/04/27 02:16:49;;;;;;;11.55;3.30;;;;;;;;;;5044140;28;20037;-77
2023/04/27 02:19:35;;;;;;;9.60;3.55;;;;;;;;;;5046115;28;20523;-77
2023/04/27 02:22:20;;;;;;;6.85;2.70;;;;;;;;;;5045085;28;20027;-77
2023/04/27 02:25:06;;;;;;;7.45;3.13;;;;;;;;;;5046510;28;20027;-75
2023/04/27 02:27:51;;;;;;;6.75;3.05;;;;;;;;;;5055055;28;20029;-74
2023/04/27 02:30:36;;;;;;;4.55;2.75;;;;;;;;;;5042398;28;20055;-73
2023/04/27 02:33:21;;;;;;;6.22;3.30;;;;;;;;;;5045916;28;20025;-75
2023/04/27 02:36:07;;;;;;;6.00;2.90;;;;;;;;;;5019905;28;20571;-73
2023/04/27 02:38:52;;;;;;;4.40;2.45;;;;;;;;;;5041214;28;20449;-72
2023/04/27 02:41:38;;;;;;;5.10;2.58;;;;;;;;;;5045926;28;21443;-76
2023/04/27 02:44:23;;;;;;;9.73;3.08;;;;;;;;;;5029665;28;20032;-75
2023/04/27 02:47:08;;;;;;;6.05;3.05;;;;;;;;;;5026904;28;20071;-75
2023/04/27 02:49:53;;;;;;;4.35;2.58;;;;;;;;;;5043017;28;20021;-74
2023/04/27 02:52:39;;;;;;;5.35;3.00;;;;;;;;;;5042902;28;20053;-75
2023/04/27 02:55:24;;;;;;;7.07;3.03;;;;;;;;;;5039014;28;20037;-74
2023/04/27 02:58:09;;;;;;;8.07;3.05;;;;;;;;;;5041743;28;20453;-76
2023/04/27 03:00:55;;;;;;;4.07;2.47;;;;;;;;;;5041789;28;20041;-78
2023/04/27 03:03:40;;;;;;;6.10;3.63;;;;;;;;;;5029810;28;20480;-72
2023/04/27 03:06:26;;;;;;;5.10;2.40;;;;;;;;;;5040331;28;20033;-71
2023/04/27 03:09:11;;;;;;;6.72;3.45;;;;;;;;;;5040940;28;20031;-73
2023/04/27 03:11:57;;;;;;;7.95;3.60;;;;;;;;;;5032290;28;20080;-71
2023/04/27 03:14:42;;;;;;;5.63;3.42;;;;;;;;;;5039683;28;20024;-69
2023/04/27 03:17:27;;;;;;;7.32;3.50;;;;;;;;;;5047727;28;20553;-71
2023/04/27 03:20:12;;;;;;;6.47;3.65;;;;;;;;;;5045439;28;20021;-69
2023/04/27 03:22:58;;;;;;;5.30;2.83;;;;;;;;;;5047884;28;20063;-71
2023/04/27 03:25:43;;;;;;;9.30;3.22;;;;;;;;;;5028342;28;20024;-73
2023/04/27 03:28:28;;;;;;;4.30;2.60;;;;;;;;;;5057196;28;20064;-75
2023/04/27 03:31:13;;;;;;;4.95;2.85;;;;;;;;;;5043240;28;20116;-72
2023/04/27 03:33:59;;;;;;;4.05;2.65;;;;;;;;;;5045321;28;20036;-72
2023/04/27 03:36:44;;;;;;;5.47;3.33;;;;;;;;;;5054037;28;20044;-73
2023/04/27 03:39:29;;;;;;;6.00;2.88;;;;;;;;;;5042949;28;20399;-70
2023/04/27 03:42:15;;;;;;;6.03;2.78;;;;;;;;;;5031950;28;20034;-73
2023/04/27 03:45:00;;;;;;;7.15;3.28;;;;;;;;;;5044362;28;20020;-69
2023/04/27 03:47:45;;;;;;;8.27;3.22;;;;;;;;;;5044040;28;20029;-70
2023/04/27 03:50:30;;;;;;;8.80;3.65;;;;;;;;;;5044388;28;20187;-71
2023/04/27 03:53:16;;;;;;;7.32;3.03;;;;;;;;;;5043052;28;20047;-71
2023/04/27 03:56:01;;;;;;;6.05;3.40;;;;;;;;;;5043057;28;20587;-74
2023/04/27 03:58:46;;;;;;;8.30;3.42;;;;;;;;;;5043847;28;20028;-70
2023/04/27 04:01:32;;;;;;;5.97;3.08;;;;;;;;;;5029200;28;21600;-70
2023/04/27 04:04:18;;;;;;;6.82;2.80;;;;;;;;;;5045975;28;20048;-71
2023/04/27 04:07:03;;;;;;;6.72;2.90;;;;;;;;;;5043427;28;20029;-70
2023/04/27 04:09:48;;;;;;;4.45;3.05;;;;;;;;;;5047837;28;20416;-70
2023/04/27 04:12:33;;;;;;;10.98;4.97;;;;;;;;;;5049668;28;20055;-71
2023/04/27 04:15:19;;;;;;;6.40;3.47;;;;;;;;;;5048197;28;20029;-72
2023/04/27 04:18:04;;;;;;;6.10;3.22;;;;;;;;;;5047226;28;20072;-72
2023/04/27 04:20:57;;;;;;;7.82;3.33;;;;;;;;;;5028644;28;20488;-72
2023/04/27 04:23:43;;;;;;;8.00;2.88;;;;;;;;;;5020713;28;20407;-73
2023/04/27 04:26:29;;;;;;;7.70;3.17;;;;;;;;;;5049872;28;20361;-72
2023/04/27 04:29:14;;;;;;;5.93;2.80;;;;;;;;;;5041461;28;20028;-74
2023/04/27 04:32:00;;;;;;;6.47;3.30;;;;;;;;;;5050051;28;20060;-78
2023/04/27 04:34:52;;;;;;;7.32;3.10;;;;;;;;;;5046073;28;20033;-70
2023/04/27 04:37:37;;;;;;;7.50;3.40;;;;;;;;;;5031176;28;20037;-75
2023/04/27 04:40:22;;;;;;;8.32;3.47;;;;;;;;;;5035233;28;20029;-75
2023/04/27 04:43:07;;;;;;;9.73;3.65;;;;;;;;;;5048586;28;20025;-76
2023/04/27 04:45:53;;;;;;;9.23;3.75;;;;;;;;;;5046920;28;20055;-75
2023/04/27 04:48:38;;;;;;;5.85;3.08;;;;;;;;;;5056007;28;20080;-75
2023/04/27 04:51:23;;;;;;;8.15;3.42;;;;;;;;;;5042511;28;20120;-76
2023/04/27 04:54:08;;;;;;;8.50;3.55;;;;;;;;;;5035670;28;20051;-71
2023/04/27 04:56:54;;;;;;;7.45;3.72;;;;;;;;;;5033655;28;20469;-72
2023/04/27 04:59:40;;;;;;;10.35;3.72;;;;;;;;;;5055567;28;20029;-71
2023/04/27 05:02:25;;;;;;;9.63;3.92;;;;;;;;;;5043670;28;20029;-71
2023/04/27 05:05:10;;;;;;;6.22;3.88;;;;;;;;;;5043433;28;20021;-74
2023/04/27 05:07:55;;;;;;;10.25;3.45;;;;;;;;;;5037858;28;20056;-70
2023/04/27 05:10:41;;;;;;;10.00;3.75;;;;;;;;;;5044634;28;20029;-77
2023/04/27 05:13:26;;;;;;;9.10;3.55;;;;;;;;;;5037331;28;20033;-69
2023/04/27 05:16:12;;;;;;;9.52;4.00;;;;;;;;;;5045205;28;20542;-71
2023/04/27 05:18:57;;;;;;;8.68;3.33;;;;;;;;;;5049735;28;20351;-69
2023/04/27 05:21:45;;;;;;;10.10;3.38;;;;;;;;;;5052603;28;20025;-71
2023/04/27 05:24:31;;;;;;;9.10;3.95;;;;;;;;;;5045475;28;20111;-70
2023/04/27 05:27:17;;;;;;;9.65;3.67;;;;;;;;;;5028080;28;20144;-70
2023/04/27 05:30:02;;;;;;;11.23;4.43;;;;;;;;;;5045239;28;20425;-76
2023/04/27 05:32:47;;;;;;;7.10;3.53;;;;;;;;;;5033156;28;20028;-75
2023/04/27 05:35:33;;;;;;;7.85;3.42;;;;;;;;;;5031616;28;20392;-74
2023/04/27 05:38:18;;;;;;;8.43;3.60;;;;;;;;;;5041080;28;20039;-75
2023/04/27 05:41:03;;;;;;;8.40;4.63;;;;;;;;;;5041067;28;20063;-75
2023/04/27 05:43:49;;;;;;;6.35;3.58;;;;;;;;;;5056724;28;20506;-76
2023/04/27 05:46:34;;;;;;;9.23;4.65;;;;;;;;;;5034806;28;20032;-72
2023/04/27 05:49:19;;;;;;;8.88;4.07;;;;;;;;;;5020729;28;20519;-75
2023/04/27 05:52:04;;;;;;;10.48;4.00;;;;;;;;;;5054678;28;20120;-75
2023/04/27 05:54:50;;;;;;;8.55;3.97;;;;;;;;;;5048900;28;20472;-76
2023/04/27 05:57:35;;;;;;;9.18;4.15;;;;;;;;;;5039758;28;20041;-76
2023/04/27 06:00:21;;;;;;;9.65;5.00;;;;;;;;;;5046826;28;20051;-75
2023/04/27 06:03:06;;;;;;;9.07;4.78;;;;;;;;;;5047831;28;20033;-75
2023/04/27 06:05:55;;;;;;;14.02;5.30;;;;;;;;;;5041050;28;20079;-76
2023/04/27 06:08:41;;;;;;;10.32;4.85;;;;;;;;;;5041161;28;20028;-79
2023/04/27 06:11:26;;;;;;;12.77;5.38;;;;;;;;;;5048324;28;20149;-79
2023/04/27 06:14:12;;;;;;;19.85;5.97;;;;;;;;;;5036850;28;20116;-78
2023/04/27 06:16:57;;;;;;;11.25;5.22;;;;;;;;;;5038892;28;20100;-77
2023/04/27 06:19:42;;;;;;;14.38;5.35;;;;;;;;;;5044189;28;20024;-77
2023/04/27 06:22:28;;;;;;;10.27;5.85;;;;;;;;;;5048758;28;20033;-74
2023/04/27 06:25:13;;;;;;;12.60;5.10;;;;;;;;;;5032015;28;20025;-75
2023/04/27 06:27:58;;;;;;;12.82;5.28;;;;;;;;;;5032057;28;20393;-75
2023/04/27 06:30:44;;;;;;;10.85;5.65;;;;;;;;;;5046901;28;20129;-76
2023/04/27 06:33:29;;;;;;;10.77;5.00;;;;;;;;;;5047917;28;20591;-76
2023/04/27 06:36:14;;;;;;;11.02;5.47;;;;;;;;;;5041846;28;20029;-79
2023/04/27 06:39:00;;;;;;;14.50;5.57;;;;;;;;;;5038600;28;20395;-77
2023/04/27 06:41:45;;;;;;;13.45;4.72;;;;;;;;;;5048453;28;20025;-77
2023/04/27 06:44:30;;;;;;;14.35;4.82;;;;;;;;;;5046755;28;20511;-73
2023/04/27 06:47:16;;;;;;;16.52;5.53;;;;;;;;;;5033758;28;20025;-72
2023/04/27 06:50:01;;;;;;;7.97;4.43;;;;;;;;;;5035940;28;20017;-72
2023/04/27 06:52:46;;;;;;;11.70;5.65;;;;;;;;;;5042794;28;20427;-72
2023/04/27 06:55:31;;;;;;;11.57;4.53;;;;;;;;;;5049451;28;20021;-71
2023/04/27 06:58:16;;;;;;;10.27;4.90;;;;;;;;;;5053962;28;20025;-72
2023/04/27 07:01:02;;;;;;;9.77;4.88;;;;;;;;;;5053606;28;20182;-72
2023/04/27 07:03:48;;;;;;;10.50;3.72;;;;;;;;;;5056839;28;20407;-76
2023/04/27 07:06:33;;;;;;;8.57;5.10;;;;;;;;;;5052030;28;20028;-76
2023/04/27 07:09:24;;;;;;;9.55;4.43;;;;;;;;;;5051364;28;20025;-77
2023/04/27 07:12:09;;;;;;;15.90;5.85;;;;;;;;;;5051962;28;20021;-77
2023/04/27 07:14:54;;;;;;;8.88;4.35;;;;;;;;;;5046423;28;20036;-76
2023/04/27 07:17:40;;;;;;;10.00;4.55;;;;;;;;;;5052982;28;20091;-81
2023/04/27 07:20:25;;;;;;;12.63;4.65;;;;;;;;;;5050579;28;20104;-81
2023/04/27 07:23:10;;;;;;;10.57;4.88;;;;;;;;;;5037254;28;20508;-78
2023/04/27 07:25:56;;;;;;;11.85;4.38;;;;;;;;;;5051891;28;20395;-79
2023/04/27 07:28:41;;;;;;;8.48;4.00;;;;;;;;;;5060326;28;20025;-80
2023/04/27 07:31:27;;;;;;;8.52;4.30;;;;;;;;;;5051589;28;20025;-78
2023/04/27 07:34:12;;;;;;;9.52;4.03;;;;;;;;;;5037566;28;20024;-81
2023/04/27 07:36:57;;;;;;;15.07;4.18;;;;;;;;;;5034717;28;20033;-79
2023/04/27 07:39:42;;;;;;;8.50;4.32;;;;;;;;;;5050657;28;20459;-76
2023/04/27 07:42:28;;;;;;;9.52;4.32;;;;;;;;;;5049556;28;20032;-75
2023/04/27 07:45:14;;;;;;;8.88;4.07;;;;;;;;;;5048963;28;20025;-74
2023/04/27 07:48:00;;;;;;;11.05;4.25;;;;;;;;;;5049246;28;20028;-78
2023/04/27 07:50:46;;;;;;;12.52;4.78;;;;;;;;;;5045411;28;20029;-75
2023/04/27 07:53:33;;;;;;;8.13;3.55;;;;;;;;;;5034822;28;20407;-73
2023/04/27 07:56:19;;;;;;;7.00;3.85;;;;;;;;;;5051155;28;20074;-73
2023/04/27 07:59:05;;;;;;;6.30;3.55;;;;;;;;;;5043910;28;20025;-76
2023/04/27 08:01:50;;;;;;;8.52;3.35;;;;;;;;;;5053398;28;20025;-79
2023/04/27 08:04:35;;;;;;;6.32;3.45;;;;;;;;;;5050074;28;20044;-75
2023/04/27 08:07:24;;;;;;;5.95;3.20;;;;;;;;;;5046951;28;20043;-79
2023/04/27 08:10:09;;;;;;;7.00;3.67;;;;;;;;;;5036178;28;20055;-81
2023/04/27 08:12:54;;;;;;;8.82;3.90;;;;;;;;;;5049918;28;20255;-73
2023/04/27 08:18:12;;;;;;;5.68;3.00;;;;;;;;;;5063363;28;20045;-71
2023/04/27 08:20:57;;;;;;;4.80;2.80;;;;;;;;;;5065437;28;20028;-74
2023/04/27 08:23:42;;;;;;;5.90;3.00;;;;;;;;;;5055712;28;20032;-72
2023/04/27 08:26:27;;;;;;;8.82;3.90;;;;;;;;;;5062371;28;20491;-71
2023/04/27 08:29:13;;;;;;;6.43;3.10;;;;;;;;;;5067089;28;20024;-73
2023/04/27 08:31:59;;;;;;;5.47;2.60;;;;;;;;;;5072422;28;20051;-75
2023/04/27 08:34:45;;;;;;;7.30;3.20;;;;;;;;;;5058843;28;20052;-70
2023/04/27 08:37:31;;;;;;;7.15;2.85;;;;;;;;;;5064590;28;20037;-71
2023/04/27 08:40:16;;;;;;;5.60;2.55;;;;;;;;;;5065260;28;20032;-71
2023/04/27 08:43:01;;;;;;;6.53;3.08;;;;;;;;;;5062850;28;20040;-71
2023/04/27 08:45:47;;;;;;;5.72;2.53;;;;;;;;;;5064915;28;20336;-70
2023/04/27 08:48:33;;;;;;;8.13;2.85;;;;;;;;;;5061433;28;20024;-68
2023/04/27 08:51:18;;;;;;;6.28;3.08;;;;;;;;;;5067362;28;20032;-75
2023/04/27 08:54:04;;;;;;;7.15;3.05;;;;;;;;;;5064352;28;20029;-75
2023/04/27 08:56:49;;;;;;;8.57;2.40;;;;;;;;;;5056918;28;20028;-74
2023/04/27 08:59:35;;;;;;;9.95;2.58;;;;;;;;;;5066298;28;20524;-73
2023/04/27 09:02:20;;;;;;;6.03;2.80;;;;;;;;;;5063356;28;20121;-80
2023/04/27 09:05:14;;;;;;;4.93;2.97;;;;;;;;;;5067800;28;20035;-78
2023/04/27 09:08:05;;;;;;;7.07;2.72;;;;;;;;;;5049683;28;20514;-72
2023/04/27 09:10:51;;;;;;;6.93;2.60;;;;;;;;;;5067681;28;20035;-73
2023/04/27 09:13:37;;;;;;;5.47;3.05;;;;;;;;;;5067739;28;20606;-71
2023/04/27 09:16:23;;;;;;;7.85;3.15;;;;;;;;;;5063381;28;20427;-73
2023/04/27 09:19:09;;;;;;;7.68;3.25;;;;;;;;;;5072553;28;20036;-70
2023/04/27 09:22:04;;;;;;;7.63;3.47;;;;;;;;;;5064036;28;20520;-67
2023/04/27 09:24:51;;;;;;;7.38;3.22;;;;;;;;;;5059179;28;20040;-68
2023/04/27 09:27:42;;;;;;;7.57;3.47;;;;;;;;;;5062827;28;20073;-71
2023/04/27 09:30:28;;;;;;;6.95;3.00;;;;;;;;;;5058759;28;20079;-75
2023/04/27 09:33:13;;;;;;;7.82;3.88;;;;;;;;;;5068637;28;20016;-74
2023/04/27 09:35:59;;;;;;;6.18;3.45;;;;;;;;;;5073413;28;20024;-73
2023/04/27 09:38:45;;;;;;;8.32;3.90;;;;;;;;;;5064719;28;20020;-74
2023/04/27 09:41:32;;;;;;;9.45;3.90;;;;;;;;;;5045213;28;20020;-74
2023/04/27 09:44:17;;;;;;;9.63;4.10;;;;;;;;;;5065697;28;20404;-80
2023/04/27 09:47:03;;;;;;;9.23;3.67;;;;;;;;;;5064596;28;20107;-75
2023/04/27 09:49:49;;;;;;;10.20;3.88;;;;;;;;;;5060625;28;20028;-70
2023/04/27 09:52:35;;;;;;;7.68;3.53;;;;;;;;;;5051862;28;20028;-70
2023/04/27 09:55:24;;;;;;;7.38;3.72;;;;;;;;;;5064436;28;20020;-70
2023/04/27 09:58:09;;;;;;;;;;;;;;;;;;5063597;28;20029;-71
2023/04/27 10:00:57;;;;;;;6.78;3.80;;;;;;;;;;5062058;28;19908;-74
2023/04/27 10:03:56;;;;;;;6.82;3.67;;;;;;;;;;5065827;28;20029;-74
2023/04/27 10:06:56;;;;;;;9.63;3.70;;;;;;;;;;5065870;28;21513;-62
2023/04/27 10:09:43;;;;;;;10.05;3.88;;;;;;;;;;5067048;28;20030;-63
2023/04/27 10:12:31;;;;;;;6.72;3.72;;;;;;;;;;5074781;28;20064;-62
2023/04/27 10:15:17;;;;;;;13.23;4.68;;;;;;;;;;5067560;28;20028;-60
2023/04/27 10:18:03;;;;;;;6.78;3.40;;;;;;;;;;5067232;28;20818;-63
2023/04/27 10:20:48;;;;;;;8.57;4.25;;;;;;;;;;5069796;28;20020;-63
2023/04/27 10:23:44;;;;;;;9.25;4.03;;;;;;;;;;5075573;28;20528;-73
2023/04/27 10:26:29;;;;;;;8.55;3.10;;;;;;;;;;5067910;28;20032;-72
2023/04/27 10:29:17;;;;;;;7.05;3.45;;;;;;;;;;5068455;28;20021;-73
2023/04/27 10:32:06;;;;;;;9.02;4.05;;;;;;;;;;5069956;28;21157;-75
2023/04/27 10:34:52;;;;;;;;;;;;;;;;;;5066248;28;20024;-75
2023/04/27 10:37:41;;;;;;;6.07;3.83;;;;;;;;;;5065303;28;19927;-74
2023/04/27 10:40:31;;;;;;;6.78;3.55;;;;;;;;;;5075574;28;20028;-75
2023/04/27 10:43:16;;;;;;;6.90;3.25;;;;;;;;;;5068202;28;20126;-66
2023/04/27 10:46:08;;;;;;;10.15;3.85;;;;;;;;;;5068949;28;20082;-65
2023/04/27 10:48:54;;;;;;;9.73;4.05;;;;;;;;;;5064083;28;20162;-64
2023/04/27 10:51:39;;;;;;;15.23;5.05;;;;;;;;;;5065015;28;20364;-66
2023/04/27 10:54:28;;;;;;;8.15;4.07;;;;;;;;;;5064791;28;20043;-67
2023/04/27 10:57:13;;;;;;;11.10;3.75;;;;;;;;;;5051877;28;20037;-65
2023/04/27 10:59:58;;;;;;;10.82;3.63;;;;;;;;;;5066354;28;20377;-69
2023/04/27 11:02:44;;;;;;;10.43;3.35;;;;;;;;;;5063359;28;20025;-72
2023/04/27 11:05:31;;;;;;;7.05;3.78;;;;;;;;;;5061155;28;20595;-72
2023/04/27 11:08:17;;;;;;;8.82;4.15;;;;;;;;;;5065467;28;20028;-72
2023/04/27 11:11:04;;;;;;;8.63;3.33;;;;;;;;;;5068414;28;20032;-72
2023/04/27 11:13:51;;;;;;;8.43;3.97;;;;;;;;;;5067570;28;20379;-75
2023/04/27 11:16:44;;;;;;;10.05;5.03;;;;;;;;;;5076580;28;20049;-74
2023/04/27 11:19:29;;;;;;;11.50;4.50;;;;;;;;;;5063534;28;20037;-68
2023/04/27 11:22:17;;;;;;;9.95;4.50;;;;;;;;;;5069655;28;20608;-67
2023/04/27 11:25:03;;;;;;;9.07;4.13;;;;;;;;;;5062984;28;20089;-66
2023/04/27 11:27:48;;;;;;;10.63;4.10;;;;;;;;;;5063365;28;20060;-66
2023/04/27 11:30:33;;;;;;;8.02;3.88;;;;;;;;;;5066795;28;20052;-65
2023/04/27 11:33:18;;;;;;;8.27;3.35;;;;;;;;;;5064618;28;20029;-67
2023/04/27 11:36:14;;;;;;;6.13;3.53;;;;;;;;;;5063989;28;20089;-67
2023/04/27 11:39:00;;;;;;;7.72;3.88;;;;;;;;;;5063997;28;20158;-69
2023/04/27 11:41:45;;;;;;;8.13;4.20;;;;;;;;;;5067060;28;21607;-68
2023/04/27 11:44:32;;;;;;;5.05;3.50;;;;;;;;;;5077622;28;20289;-68
2023/04/27 11:47:21;;;;;;;11.45;3.83;;;;;;;;;;5067466;28;20032;-69
2023/04/27 11:50:07;;;;;;;10.32;3.90;;;;;;;;;;5071974;28;20028;-70
2023/04/27 11:52:52;;;;;;;8.57;3.50;;;;;;;;;;5067058;28;20048;-68
2023/04/27 11:55:40;;;;;;;9.20;3.80;;;;;;;;;;5061362;28;20483;-62
2023/04/27 11:58:26;;;;;;;6.95;3.50;;;;;;;;;;5073866;28;20054;-70
2023/04/27 12:01:11;;;;;;;8.70;3.45;;;;;;;;;;5067046;28;20032;-67
2023/04/27 12:03:57;;;;;;;8.32;3.95;;;;;;;;;;5067894;28;20028;-69
2023/04/27 12:06:42;;;;;;;6.43;3.10;;;;;;;;;;5066313;28;20086;-70
2023/04/27 12:09:27;;;;;;;8.27;4.47;;;;;;;;;;5067961;28;20044;-69
2023/04/27 12:12:13;;;;;;;8.15;4.00;;;;;;;;;;5067480;28;20024;-76
2023/04/27 12:14:58;;;;;;;8.20;4.82;;;;;;;;;;5053397;28;20338;-63
2023/04/27 12:17:43;;;;;;;8.57;4.00;;;;;;;;;;5060438;28;20125;-62
2023/04/27 12:20:29;;;;;;;8.82;3.97;;;;;;;;;;5065063;28;20028;-63
2023/04/27 12:23:14;;;;;;;7.38;4.13;;;;;;;;;;5065487;28;20324;-63
2023/04/27 12:26:00;;;;;;;10.50;3.88;;;;;;;;;;5058333;28;20028;-65
2023/04/27 12:28:45;;;;;;;6.82;4.22;;;;;;;;;;5066925;28;20112;-62
2023/04/27 12:31:31;;;;;;;9.68;4.40;;;;;;;;;;5063009;28;20052;-68
2023/04/27 12:34:16;;;;;;;9.88;3.70;;;;;;;;;;5066833;28;20451;-68
2023/04/27 12:37:02;;;;;;;9.07;3.35;;;;;;;;;;5065248;28;20025;-72
2023/04/27 12:39:47;;;;;;;10.57;3.72;;;;;;;;;;5065977;28;20119;-69
2023/04/27 12:42:32;;;;;;;6.55;3.45;;;;;;;;;;5058343;28;20056;-68
2023/04/27 12:45:17;;;;;;;9.98;3.10;;;;;;;;;;5065271;28;20724;-68
2023/04/27 12:48:02;;;;;;;11.55;4.15;;;;;;;;;;5064857;28;20029;-70
2023/04/27 12:50:48;;;;;;;8.00;4.28;;;;;;;;;;5064447;28;20024;-68
2023/04/27 12:53:33;;;;;;;11.00;4.78;;;;;;;;;;5065296;28;20024;-77
2023/04/27 12:56:18;;;;;;;9.68;4.55;;;;;;;;;;5052492;28;20098;-78
2023/04/27 12:59:05;;;;;;;9.38;4.18;;;;;;;;;;5064882;28;20036;-74
2023/04/27 13:01:50;;;;;;;10.27;4.20;;;;;;;;;;5066103;28;20037;-78
2023/04/27 13:04:35;;;;;;;8.20;4.35;;;;;;;;;;5067063;28;20395;-77
2023/04/27 13:07:21;;;;;;;9.95;4.45;;;;;;;;;;5065079;28;20031;-73
2023/04/27 13:10:06;;;;;;;8.90;3.35;;;;;;;;;;5066320;28;20487;-74
2023/04/27 13:12:53;;;;;;;10.15;3.47;;;;;;;;;;5067993;28;20044;-75
2023/04/27 13:15:38;;;;;;;6.00;2.72;;;;;;;;;;5062666;28;20029;-75
2023/04/27 13:18:23;;;;;;;8.32;3.80;;;;;;;;;;5072988;28;20131;-75
2023/04/27 13:21:09;;;;;;;7.07;2.88;;;;;;;;;;5076259;28;20387;-77
2023/04/27 13:23:55;;;;;;;7.05;3.13;;;;;;;;;;5050764;28;20039;-70
2023/04/27 13:26:40;;;;;;;5.85;3.17;;;;;;;;;;5064278;28;20086;-68
2023/04/27 13:29:26;;;;;;;7.82;3.55;;;;;;;;;;5066093;28;20033;-68
2023/04/27 13:32:11;;;;;;;7.40;4.38;;;;;;;;;;5067101;28;20020;-66
2023/04/27 13:34:56;;;;;;;9.52;3.63;;;;;;;;;;5051017;28;20021;-68
2023/04/27 13:37:43;;;;;;;12.23;4.53;;;;;;;;;;5045945;28;20062;-67
2023/04/27 13:40:28;;;;;;;5.45;3.00;;;;;;;;;;5058752;28;20028;-67
2023/04/27 13:43:13;;;;;;;7.07;3.60;;;;;;;;;;5064966;28;20020;-65
2023/04/27 13:46:00;;;;;;;8.73;3.92;;;;;;;;;;5063913;28;20463;-70
2023/04/27 13:48:45;;;;;;;11.82;4.50;;;;;;;;;;5065229;28;20423;-69
2023/04/27 13:51:31;;;;;;;9.00;4.43;;;;;;;;;;5069051;28;20025;-69
2023/04/27 13:54:16;;;;;;;8.68;4.10;;;;;;;;;;5064531;28;20588;-70
2023/04/27 13:57:02;;;;;;;11.13;4.68;;;;;;;;;;5036820;28;20632;-71
2023/04/27 13:59:47;;;;;;;5.90;3.15;;;;;;;;;;5063994;28;20036;-71
2023/04/27 14:02:33;;;;;;;8.88;4.05;;;;;;;;;;5065018;28;20028;-78
2023/04/27 14:05:18;;;;;;;6.82;3.35;;;;;;;;;;5064594;28;20510;-72
2023/04/27 14:08:03;;;;;;;6.75;3.58;;;;;;;;;;5063780;28;20514;-73
2023/04/27 14:10:48;;;;;;;9.43;3.35;;;;;;;;;;5065070;28;20056;-74
2023/04/27 14:13:34;;;;;;;6.03;3.50;;;;;;;;;;5063866;28;20029;-74
2023/04/27 14:16:19;;;;;;;8.75;4.05;;;;;;;;;;5059799;28;20052;-74
2023/04/27 14:19:04;;;;;;;9.35;4.15;;;;;;;;;;5037506;28;20039;-74
2023/04/27 14:21:50;;;;;;;6.72;3.38;;;;;;;;;;5065281;28;20025;-75
2023/04/27 14:24:35;;;;;;;10.52;3.30;;;;;;;;;;5071360;28;20040;-72
2023/04/27 14:27:20;;;;;;;8.20;3.80;;;;;;;;;;5065902;28;20552;-72
2023/04/27 14:30:06;;;;;;;8.57;3.40;;;;;;;;;;5068903;28;20024;-75
2023/04/27 14:32:52;;;;;;;8.43;3.40;;;;;;;;;;5053808;28;20029;-71
2023/04/27 14:35:37;;;;;;;9.88;3.20;;;;;;;;;;5069460;28;20394;-73
2023/04/27 14:38:23;;;;;;;5.78;3.17;;;;;;;;;;5066963;28;20089;-71
2023/04/27 14:41:08;;;;;;;10.30;3.65;;;;;;;;;;5065749;28;20036;-75
2023/04/27 14:43:54;;;;;;;4.13;3.20;;;;;;;;;;5065956;28;20107;-76
2023/04/27 14:46:39;;;;;;;8.73;3.75;;;;;;;;;;5048067;28;20024;-75
2023/04/27 14:49:24;;;;;;;4.43;2.70;;;;;;;;;;5065487;28;20024;-75
2023/04/27 14:52:10;;;;;;;8.40;2.72;;;;;;;;;;5061275;28;20025;-75
2023/04/27 14:54:56;;;;;;;8.68;3.38;;;;;;;;;;5070191;28;21277;-75
2023/04/27 14:57:41;;;;;;;7.15;3.00;;;;;;;;;;5069248;28;20036;-71
2023/04/27 15:00:26;;;;;;;5.07;2.70;;;;;;;;;;5062616;28;20748;-71
2023/04/27 15:03:12;;;;;;;6.80;2.50;;;;;;;;;;5056762;28;20035;-71
2023/04/27 15:06:01;;;;;;;4.15;2.33;;;;;;;;;;5046583;28;20128;-72
2023/04/27 15:08:46;;;;;;;8.20;2.58;;;;;;;;;;5064574;28;20157;-71
2023/04/27 15:11:31;;;;;;;7.97;3.30;;;;;;;;;;5066673;28;20028;-73
2023/04/27 15:14:17;;;;;;;6.65;2.78;;;;;;;;;;5069978;28;20543;-70
2023/04/27 15:17:02;;;;;;;7.25;2.72;;;;;;;;;;5066470;28;20047;-74
2023/04/27 15:19:47;;;;;;;7.60;3.17;;;;;;;;;;5068960;28;20255;-70
2023/04/27 15:22:33;;;;;;;6.10;2.72;;;;;;;;;;5069747;28;20131;-71
2023/04/27 15:25:18;;;;;;;5.55;2.85;;;;;;;;;;5066738;28;20036;-69
2023/04/27 15:28:03;;;;;;;9.68;3.40;;;;;;;;;;5074857;28;20021;-69
2023/04/27 15:30:49;;;;;;;5.03;2.55;;;;;;;;;;5058880;28;20093;-69
2023/04/27 15:33:34;;;;;;;6.95;2.80;;;;;;;;;;5063469;28;20031;-69
2023/04/27 15:36:21;;;;;;;4.90;2.92;;;;;;;;;;5064834;28;20047;-66
2023/04/27 15:39:07;;;;;;;5.65;2.42;;;;;;;;;;5049940;28;20048;-75
2023/04/27 15:41:52;;;;;;;4.82;2.65;;;;;;;;;;5060632;28;20032;-75
2023/04/27 15:44:37;;;;;;;9.25;3.08;;;;;;;;;;5048790;28;20036;-74
2023/04/27 15:47:22;;;;;;;7.82;3.17;;;;;;;;;;5066785;28;20040;-77
2023/04/27 15:50:08;;;;;;;5.22;2.53;;;;;;;;;;5061863;28;20037;-77
2023/04/27 15:52:53;;;;;;;8.38;2.40;;;;;;;;;;5059236;28;20442;-69
2023/04/27 15:55:39;;;;;;;6.43;3.13;;;;;;;;;;5063403;28;20020;-72
2023/04/27 15:58:24;;;;;;;5.88;3.28;;;;;;;;;;5062405;28;20080;-73
2023/04/27 16:01:09;;;;;;;4.35;2.40;;;;;;;;;;5067100;28;20042;-74
2023/04/27 16:03:55;;;;;;;6.13;3.22;;;;;;;;;;5048815;28;20527;-71
2023/04/27 16:06:40;;;;;;;5.57;2.53;;;;;;;;;;5060083;28;20473;-72
2023/04/27 16:09:26;;;;;;;105.40;10.45;;;;;;;;;;5063352;28;20028;-73
2023/04/27 16:12:11;;;;;;;33.88;4.90;;;;;;;;;;5065103;28;20024;-72
2023/04/27 16:14:56;;;;;;;17.10;3.58;;;;;;;;;;5068614;28;20103;-74
2023/04/27 16:17:41;;;;;;;9.43;2.85;;;;;;;;;;5049807;28;20037;-73
2023/04/27 16:20:29;;;;;;;5.25;2.80;;;;;;;;;;5051575;28;20036;-73
2023/04/27 16:23:15;;;;;;;5.80;3.17;;;;;;;;;;5066004;28;20056;-74
2023/04/27 16:26:00;;;;;;;9.82;3.60;;;;;;;;;;5067557;28;20403;-73
2023/04/27 16:28:45;;;;;;;6.88;3.10;;;;;;;;;;5068642;28;20047;-73
2023/04/27 16:31:31;;;;;;;11.52;3.95;;;;;;;;;;5071515;28;20095;-72
2023/04/27 16:34:16;;;;;;;9.02;3.90;;;;;;;;;;5063271;28;20092;-74